Time;durP1;ratioP1;P1;durP2;ratioP2;P2;SDS_P1;SDS_P2;PMS_P1;PMS_P2;Temp;Humidity;BMP_temperature;BMP_pressure;BME280_temperature;BME280_humidity;BME280_pressure;Samples;Min_cycle;Max_cycle;Signal;HPM_P1;HPM_P2
2022/01/04 00:00:23;;;;;;;55.17;50.80;;;;;;;9.75;100.00;100276.50;2000002;71;33013;-76
2022/01/04 00:06:07;;;;;;;51.87;47.20;;;;;;;9.65;100.00;100264.11;1995005;71;32822;-75
2022/01/04 00:13:21;;;;;;;52.67;48.27;;;;;;;9.62;100.00;100255.01;2014618;71;32947;-76
2022/01/04 00:17:44;;;;;;;51.70;47.80;;;;;;;9.53;100.00;100254.81;2002040;70;32816;-76
2022/01/04 00:23:29;;;;;;;53.93;49.30;;;;;;;9.44;100.00;100238.00;2000677;71;32767;-74
2022/01/04 00:29:14;;;;;;;51.30;47.30;;;;;;;9.58;100.00;100224.27;2005522;71;33342;-74
2022/01/04 00:34:58;;;;;;;51.33;47.10;;;;;;;9.48;100.00;100203.58;2004609;71;33258;-74
2022/01/04 00:40:43;;;;;;;51.83;47.70;;;;;;;9.53;100.00;100189.11;2012735;71;32897;-74
2022/01/04 00:46:28;;;;;;;51.27;46.97;;;;;;;9.48;100.00;100185.00;2016695;70;32871;-75
2022/01/04 00:52:16;;;;;;;52.67;48.47;;;;;;;9.52;100.00;100180.52;1997011;71;33245;-75
2022/01/04 00:57:58;;;;;;;51.73;47.07;;;;;;;9.35;100.00;100175.17;2015096;71;33308;-75
2022/01/04 01:03:42;;;;;;;50.83;46.47;;;;;;;9.36;100.00;100172.67;2018406;71;33335;-75
2022/01/04 01:09:30;;;;;;;53.27;48.80;;;;;;;9.40;100.00;100169.02;2003875;71;32883;-75
2022/01/04 01:15:13;;;;;;;50.60;46.50;;;;;;;9.28;100.00;100158.08;2014711;71;32832;-74
2022/01/04 01:20:57;;;;;;;49.87;45.90;;;;;;;9.35;100.00;100159.93;1996986;71;32766;-75
2022/01/04 01:26:41;;;;;;;50.70;46.33;;;;;;;9.28;100.00;100155.30;2011421;71;32813;-75
2022/01/04 01:32:25;;;;;;;49.63;45.57;;;;;;;9.26;100.00;100138.96;2000825;70;32771;-75
2022/01/04 01:38:11;;;;;;;47.97;43.83;;;;;;;9.23;100.00;100118.78;2006138;71;33316;-74
2022/01/04 01:43:56;;;;;;;49.17;45.20;;;;;;;9.20;100.00;100110.23;2007858;71;32887;-74
2022/01/04 01:49:40;;;;;;;53.03;48.87;;;;;;;9.23;100.00;100102.70;2015015;71;32830;-74
2022/01/04 01:55:25;;;;;;;48.10;43.87;;;;;;;9.18;100.00;100098.60;2009891;71;33313;-74
2022/01/04 02:01:13;;;;;;;50.80;46.40;;;;;;;9.00;100.00;100092.70;1994876;71;33312;-75
2022/01/04 02:06:58;;;;;;;47.33;43.40;;;;;;;9.05;100.00;100101.52;2009898;71;32754;-75
2022/01/04 02:12:47;;;;;;;53.27;49.23;;;;;;;9.25;100.00;100099.89;2011628;71;32764;-75
2022/01/04 02:18:33;;;;;;;52.67;48.73;;;;;;;9.20;100.00;100093.61;1995196;71;32762;-74
2022/01/04 02:24:17;;;;;;;51.10;47.00;;;;;;;9.04;100.00;100089.61;1998030;70;33333;-74
2022/01/04 02:30:04;;;;;;;53.10;49.03;;;;;;;9.10;100.00;100082.08;1997038;71;33276;-75
2022/01/04 02:35:48;;;;;;;54.00;49.83;;;;;;;9.11;100.00;100074.83;2016537;71;32812;-74
2022/01/04 02:41:32;;;;;;;53.37;49.20;;;;;;;9.14;100.00;100073.44;2009192;71;32880;-74
2022/01/04 02:47:17;;;;;;;51.50;47.13;;;;;;;9.29;100.00;100059.38;1995173;71;32768;-74
2022/01/04 02:53:02;;;;;;;52.73;48.40;;;;;;;9.22;100.00;100057.55;2018246;71;32916;-74
2022/01/04 02:58:46;;;;;;;53.40;49.40;;;;;;;9.26;100.00;100050.84;2008380;71;33229;-74
2022/01/04 03:04:31;;;;;;;52.80;48.17;;;;;;;9.38;100.00;100037.39;2010857;71;32823;-75
2022/01/04 03:10:15;;;;;;;50.80;46.73;;;;;;;9.25;100.00;100036.16;2014819;71;32847;-75
2022/01/04 03:15:59;;;;;;;54.03;50.17;;;;;;;9.33;100.00;100042.98;2009205;71;33422;-74
2022/01/04 03:21:44;;;;;;;53.73;49.70;;;;;;;9.32;100.00;100040.80;2007533;71;33001;-75
2022/01/04 03:27:30;;;;;;;53.37;49.40;;;;;;;9.50;100.00;100019.75;1980069;72;33427;-75
2022/01/04 03:33:15;;;;;;;51.53;47.70;;;;;;;9.46;100.00;100009.83;1999984;71;32880;-75
2022/01/04 03:39:04;;;;;;;54.50;50.13;;;;;;;9.47;100.00;100014.81;2004096;71;32868;-75
2022/01/04 03:44:48;;;;;;;54.53;50.87;;;;;;;9.52;100.00;100025.84;2012935;71;33304;-75
2022/01/04 03:50:32;;;;;;;54.87;51.13;;;;;;;9.53;100.00;100024.72;1995047;71;32830;-76
2022/01/04 03:56:16;;;;;;;54.30;50.30;;;;;;;9.50;100.00;100013.66;2013109;71;32959;-75
2022/01/04 04:02:01;;;;;;;52.63;49.03;;;;;;;9.57;100.00;100008.58;2014806;71;33385;-74
2022/01/04 04:07:45;;;;;;;54.87;51.17;;;;;;;9.57;100.00;100003.59;2006134;70;32901;-76
2022/01/04 04:13:29;;;;;;;52.30;48.50;;;;;;;9.57;100.00;100000.27;2003733;71;32831;-74
2022/01/04 04:19:13;;;;;;;52.63;48.83;;;;;;;9.51;100.00;99977.05;2012845;70;32811;-75
2022/01/04 04:24:57;;;;;;;56.97;52.53;;;;;;;9.41;100.00;99973.06;2018415;71;32877;-75
2022/01/04 04:30:42;;;;;;;53.60;49.17;;;;;;;9.41;100.00;99966.14;2014781;70;33031;-74
2022/01/04 04:36:27;;;;;;;53.77;49.17;;;;;;;9.45;100.00;99978.27;2004617;71;32914;-75
2022/01/04 04:42:14;;;;;;;54.90;50.60;;;;;;;9.35;100.00;99977.02;2000664;71;32800;-73
2022/01/04 04:48:01;;;;;;;54.03;49.43;;;;;;;9.41;100.00;99986.92;2002346;71;32756;-74
2022/01/04 04:53:46;;;;;;;53.03;48.73;;;;;;;9.48;100.00;99976.28;2000249;71;33306;-74
2022/01/04 04:59:30;;;;;;;52.47;48.10;;;;;;;9.51;100.00;99979.27;1991228;71;33243;-74
2022/01/04 05:05:14;;;;;;;55.00;50.67;;;;;;;9.47;100.00;99980.17;2016780;71;32848;-74
2022/01/04 05:10:58;;;;;;;53.93;49.60;;;;;;;9.53;100.00;99949.31;1998343;71;32833;-73
2022/01/04 05:16:42;;;;;;;53.37;49.37;;;;;;;9.51;100.00;99938.25;2011554;71;32837;-74
2022/01/04 05:22:27;;;;;;;52.20;47.90;;;;;;;9.61;100.00;99935.33;2003882;71;32819;-75
2022/01/04 05:28:11;;;;;;;53.23;48.90;;;;;;;9.57;100.00;99921.81;2016550;71;32821;-75
2022/01/04 05:33:56;;;;;;;50.17;46.03;;;;;;;9.53;100.00;99913.84;2009907;71;33298;-74
2022/01/04 05:39:40;;;;;;;51.27;47.07;;;;;;;9.59;100.00;99921.76;1994875;71;32837;-73
2022/01/04 05:45:24;;;;;;;53.10;48.83;;;;;;;9.59;100.00;99916.77;2018384;71;33367;-74
2022/01/04 05:51:10;;;;;;;54.37;49.97;;;;;;;9.61;100.00;99911.77;2006172;71;33337;-76
2022/01/04 05:56:54;;;;;;;53.47;49.27;;;;;;;9.58;100.00;99908.22;2009188;71;32891;-74
2022/01/04 06:02:38;;;;;;;52.23;48.23;;;;;;;9.59;100.00;99912.62;1996948;70;32820;-74
2022/01/04 06:08:27;;;;;;;53.77;49.67;;;;;;;9.52;100.00;99894.99;2006007;71;32855;-72
2022/01/04 06:20:17;;;;;;;59.73;55.53;;;;;;;9.37;100.00;99896.59;2009320;71;32922;-74
2022/01/04 06:26:02;;;;;;;54.67;50.63;;;;;;;9.29;100.00;99885.37;1991348;71;32754;-76
2022/01/04 06:31:47;;;;;;;58.93;54.30;;;;;;;9.13;100.00;99882.84;2014905;71;33269;-76
2022/01/04 06:37:32;;;;;;;51.70;47.73;;;;;;;9.06;100.00;99888.50;2011706;70;32831;-76
2022/01/04 06:43:16;;;;;;;53.07;48.70;;;;;;;8.97;100.00;99893.05;2015045;71;33434;-73
2022/01/04 06:49:00;;;;;;;60.10;55.93;;;;;;;8.86;100.00;99875.73;2014967;71;33334;-75
2022/01/04 06:54:46;;;;;;;56.53;52.47;;;;;;;8.63;100.00;99873.84;2009027;71;32865;-73
2022/01/04 07:00:30;;;;;;;56.10;52.37;;;;;;;8.61;100.00;99900.42;2004346;71;32752;-78
2022/01/04 07:06:14;;;;;;;55.00;51.00;;;;;;;8.73;100.00;99909.69;2001561;71;32858;-76
2022/01/04 07:11:59;;;;;;;52.73;49.10;;;;;;;8.69;100.00;99923.86;2012983;71;32827;-76
2022/01/04 07:17:43;;;;;;;52.23;48.30;;;;;;;8.65;100.00;99916.70;1997088;71;33325;-75
2022/01/04 07:23:28;;;;;;;52.93;48.43;;;;;;;8.95;100.00;99918.27;2009431;70;32936;-74
2022/01/04 07:29:12;;;;;;;55.40;51.23;;;;;;;9.14;100.00;99917.73;1997068;71;33360;-73
2022/01/04 07:34:56;;;;;;;61.00;57.00;;;;;;;9.22;100.00;99910.70;2000738;71;32802;-74
2022/01/04 07:40:41;;;;;;;62.03;57.37;;;;;;;9.17;100.00;99907.99;1996684;71;32750;-73
2022/01/04 07:46:25;;;;;;;63.27;58.67;;;;;;;9.04;100.00;99894.33;1991465;71;33286;-72
2022/01/04 07:52:11;;;;;;;60.50;55.80;;;;;;;9.09;100.00;99908.66;2006233;71;33203;-69
2022/01/04 07:57:55;;;;;;;59.53;55.47;;;;;;;9.11;100.00;99916.13;2014662;71;32887;-74
2022/01/04 08:03:40;;;;;;;60.23;55.83;;;;;;;9.15;100.00;99931.03;2016494;71;33278;-74
2022/01/04 08:09:25;;;;;;;59.00;54.70;;;;;;;9.28;100.00;99937.22;2014637;71;32795;-74
2022/01/04 08:15:12;;;;;;;61.00;56.97;;;;;;;9.24;100.00;99941.69;1991308;71;32844;-74
2022/01/04 08:20:57;;;;;;;61.50;57.33;;;;;;;9.08;100.00;99944.41;2012922;71;32809;-73
2022/01/04 08:26:42;;;;;;;62.23;58.13;;;;;;;9.05;100.00;99945.01;2014785;71;32857;-73
2022/01/04 08:32:26;;;;;;;58.97;54.60;;;;;;;8.99;100.00;99955.87;1996887;71;33465;-72
2022/01/04 08:38:11;;;;;;;57.30;53.27;;;;;;;9.12;100.00;99947.67;2005995;71;32808;-74
2022/01/04 08:43:56;;;;;;;58.17;53.47;;;;;;;9.10;100.00;99950.48;1996875;71;32781;-72
2022/01/04 08:49:42;;;;;;;57.07;52.43;;;;;;;9.13;100.00;99961.80;2002177;71;33396;-74
2022/01/04 08:55:27;;;;;;;57.80;53.40;;;;;;;9.16;100.00;99963.13;2005506;71;32913;-72
2022/01/04 09:01:12;;;;;;;56.20;52.00;;;;;;;9.43;100.00;99968.03;2002344;71;32817;-73
2022/01/04 09:06:56;;;;;;;52.07;47.67;;;;;;;9.47;100.00;99978.78;2013102;71;32795;-72
2022/01/04 09:12:51;;;;;;;57.73;53.10;;;;;;;9.46;100.00;99982.11;2000659;71;32856;-73
2022/01/04 09:18:43;;;;;;;55.83;51.83;;;;;;;9.48;100.00;99985.42;2006101;71;32855;-73
2022/01/04 09:24:29;;;;;;;58.57;54.37;;;;;;;9.45;100.00;99990.19;2018471;71;32821;-72
2022/01/04 09:30:14;;;;;;;59.30;55.20;;;;;;;9.33;100.00;99988.39;2009804;71;32822;-73
2022/01/04 09:35:58;;;;;;;58.17;54.43;;;;;;;8.98;100.00;100006.32;2014694;71;32910;-71
2022/01/04 09:41:43;;;;;;;59.00;55.30;;;;;;;8.01;100.00;100024.95;2016459;71;32913;-74
2022/01/04 09:47:29;;;;;;;60.23;56.37;;;;;;;7.78;100.00;100040.34;2016664;71;32878;-74
2022/01/04 09:53:20;;;;;;;59.77;55.87;;;;;;;7.65;100.00;100053.41;2016708;71;33434;-73
2022/01/04 09:59:06;;;;;;;59.37;55.57;;;;;;;7.37;100.00;100067.91;1991343;71;32772;-74
2022/01/04 10:04:52;;;;;;;57.33;53.63;;;;;;;7.06;100.00;100086.52;2002477;71;32806;-74
2022/01/04 10:10:38;;;;;;;58.57;54.87;;;;;;;7.00;100.00;100113.06;2013264;71;32723;-76
2022/01/04 10:16:24;;;;;;;56.70;53.20;;;;;;;6.99;100.00;100135.70;2008056;71;33231;-74
2022/01/04 10:22:21;;;;;;;59.30;55.50;;;;;;;6.91;100.00;100150.06;2005847;71;33388;-77
2022/01/04 10:28:12;;;;;;;53.77;50.27;;;;;;;6.99;100.00;100166.61;1995463;70;32829;-73
2022/01/04 10:33:57;;;;;;;56.00;52.60;;;;;;;6.76;100.00;100176.31;2005639;71;33319;-71
2022/01/04 10:40:04;;;;;;;54.73;51.23;;;;;;;6.76;100.00;100186.78;1991197;71;32804;-75
2022/01/04 10:45:49;;;;;;;52.30;48.90;;;;;;;6.63;100.00;100196.19;2016504;71;32804;-74
2022/01/04 10:51:35;;;;;;;54.60;51.10;;;;;;;6.79;100.00;100204.73;2016876;71;33337;-74
2022/01/04 10:57:22;;;;;;;54.60;51.27;;;;;;;6.76;100.00;100212.20;1997054;71;33250;-80
2022/01/04 11:03:08;;;;;;;55.03;51.73;;;;;;;6.42;100.00;100227.61;1990100;71;32771;-74
2022/01/04 11:08:55;;;;;;;52.73;49.50;;;;;;;6.27;100.00;100246.32;2002653;71;33375;-77
2022/01/04 11:14:42;;;;;;;54.10;50.80;;;;;;;5.90;100.00;100250.61;1998279;71;32877;-75
2022/01/04 11:20:27;;;;;;;53.33;49.83;;;;;;;5.78;100.00;100256.84;2005786;71;33285;-75
2022/01/04 11:26:13;;;;;;;53.87;50.33;;;;;;;5.97;100.00;100258.07;2009502;71;32823;-77
2022/01/04 11:32:03;;;;;;;53.17;49.93;;;;;;;6.11;100.00;100266.13;2009950;71;32952;-80
2022/01/04 11:37:56;;;;;;;50.43;47.30;;;;;;;6.09;100.00;100266.11;2016315;71;32906;-74
2022/01/04 11:43:42;;;;;;;51.07;47.90;;;;;;;5.93;100.00;100277.08;2014713;71;32838;-81
2022/01/04 11:49:27;;;;;;;48.37;45.30;;;;;;;5.77;100.00;100272.56;1998531;71;33081;-77
2022/01/04 11:55:21;;;;;;;50.90;47.80;;;;;;;5.86;100.00;100281.16;1994948;71;32934;-76
2022/01/04 12:01:06;;;;;;;51.67;48.67;;;;;;;5.85;100.00;100276.19;1998410;71;32882;-74
2022/01/04 12:06:57;;;;;;;53.73;50.47;;;;;;;5.71;100.00;100273.63;1996977;71;32806;-75
2022/01/04 12:12:58;;;;;;;51.13;47.93;;;;;;;5.82;100.00;100278.08;2010937;71;32919;-74
2022/01/04 12:19:22;;;;;;;51.30;48.10;;;;;;;5.79;100.00;100280.55;2011585;71;32797;-74
2022/01/04 12:25:16;;;;;;;53.40;50.10;;;;;;;5.74;100.00;100289.61;2009312;71;32834;-75
2022/01/04 12:31:33;;;;;;;50.20;47.10;;;;;;;5.94;100.00;100290.31;2018274;71;32926;-75
2022/01/04 12:37:20;;;;;;;49.60;46.60;;;;;;;5.93;100.00;100282.59;2002427;71;32918;-74
2022/01/04 12:43:07;;;;;;;50.07;47.10;;;;;;;6.05;100.00;100294.77;1996846;71;32831;-80
2022/01/04 12:48:55;;;;;;;48.90;46.10;;;;;;;6.07;100.00;100284.86;2015082;71;32942;-78
2022/01/04 12:54:43;;;;;;;44.10;41.50;;;;;;;6.10;100.00;100294.80;1998454;71;33358;-71
2022/01/04 13:00:30;;;;;;;48.27;45.30;;;;;;;6.12;100.00;100306.37;1998324;71;32901;-74
2022/01/04 13:06:15;;;;;;;48.33;45.47;;;;;;;6.04;100.00;100298.61;2013366;71;33436;-74
2022/01/04 13:12:08;;;;;;;43.97;41.57;;;;;;;6.10;100.00;100300.85;1991384;71;32899;-74
2022/01/04 13:17:58;;;;;;;40.80;38.50;;;;;;;6.01;100.00;100297.78;2003906;71;32969;-75
2022/01/04 13:23:47;;;;;;;38.17;35.83;;;;;;;6.02;100.00;100295.31;2014800;71;33346;-74
2022/01/04 13:29:31;;;;;;;42.33;40.03;;;;;;;5.78;100.00;100290.73;2004170;71;32970;-73
2022/01/04 13:35:24;;;;;;;42.40;40.00;;;;;;;5.78;100.00;100290.73;2014565;71;33334;-74
2022/01/04 13:41:10;;;;;;;44.53;42.00;;;;;;;5.80;100.00;100264.30;2007648;71;33404;-74
2022/01/04 13:46:56;;;;;;;41.20;38.87;;;;;;;5.83;100.00;100276.16;2016522;71;32854;-75
2022/01/04 13:52:45;;;;;;;43.53;41.03;;;;;;;5.96;100.00;100277.08;2007510;71;33423;-74
2022/01/04 14:02:07;;;;;;;40.80;38.70;;;;;;;5.91;100.00;100272.92;2002469;71;32833;-76
2022/01/04 14:07:59;;;;;;;40.93;38.80;;;;;;;5.95;100.00;100270.73;2013137;71;32934;-74
2022/01/04 14:14:11;;;;;;;41.03;38.83;;;;;;;6.00;100.00;100282.33;2008128;71;33294;-74
2022/01/04 14:20:06;;;;;;;39.03;36.63;;;;;;;6.06;100.00;100274.37;1999738;70;33061;-75
2022/01/04 14:26:01;;;;;;;39.93;37.83;;;;;;;6.16;100.00;100269.46;2000061;71;32949;-72
2022/01/04 14:31:46;;;;;;;43.50;40.87;;;;;;;6.07;100.00;100281.56;1998397;71;32835;-74
2022/01/04 14:37:30;;;;;;;39.37;37.03;;;;;;;6.13;100.00;100290.66;1995155;71;32842;-80
2022/01/04 14:43:14;;;;;;;38.47;36.57;;;;;;;6.00;100.00;100304.39;2014755;71;33309;-78
2022/01/04 14:48:58;;;;;;;38.83;36.63;;;;;;;6.00;100.00;100308.52;1999444;71;32768;-79
2022/01/04 14:54:43;;;;;;;35.27;33.47;;;;;;;6.01;100.00;100311.56;2003658;71;33151;-73
2022/01/04 15:00:30;;;;;;;37.07;35.10;;;;;;;5.94;100.00;100327.53;1995044;71;32891;-79
2022/01/04 15:06:16;;;;;;;37.20;35.30;;;;;;;5.91;100.00;100339.06;2005598;71;32877;-72
2022/01/04 15:12:00;;;;;;;39.43;37.23;;;;;;;5.96;100.00;100337.72;2000138;71;32826;-73
2022/01/04 15:17:44;;;;;;;40.03;37.93;;;;;;;6.02;100.00;100338.59;1996865;71;32830;-73
2022/01/04 15:23:28;;;;;;;39.13;37.03;;;;;;;6.07;100.00;100341.38;1995753;71;33392;-79
2022/01/04 15:29:13;;;;;;;42.93;40.40;;;;;;;6.01;100.00;100352.08;2004962;71;32810;-79
2022/01/04 15:34:57;;;;;;;42.30;39.87;;;;;;;5.91;100.00;100355.60;2012844;71;32947;-78
2022/01/04 15:40:42;;;;;;;38.97;36.87;;;;;;;5.73;100.00;100369.81;2013187;71;33425;-71
2022/01/04 15:46:26;;;;;;;34.50;32.50;;;;;;;5.59;100.00;100385.13;2000445;71;32781;-74
2022/01/04 15:52:14;;;;;;;31.90;30.10;;;;;;;5.53;100.00;100380.66;1994714;71;32811;-73
2022/01/04 15:57:58;;;;;;;38.33;36.13;;;;;;;5.60;100.00;100397.81;2009041;71;32729;-73
2022/01/04 16:03:46;;;;;;;33.87;31.90;;;;;;;5.51;100.00;100400.22;1987776;71;33353;-73
2022/01/04 16:09:31;;;;;;;36.23;34.23;;;;;;;5.56;100.00;100407.70;1995057;71;32763;-71
2022/01/04 16:15:19;;;;;;;32.97;31.23;;;;;;;5.60;100.00;100417.93;2000545;71;32810;-75
2022/01/04 16:27:14;;;;;;;35.90;34.10;;;;;;;5.55;100.00;100439.09;2012651;71;32935;-72
2022/01/04 16:32:59;;;;;;;38.33;36.27;;;;;;;5.42;100.00;100449.45;2005490;70;32873;-71
2022/01/04 16:38:44;;;;;;;34.93;32.87;;;;;;;5.30;100.00;100450.70;1991349;71;32738;-71
2022/01/04 16:44:29;;;;;;;35.77;33.70;;;;;;;5.25;100.00;100445.98;2005848;71;32787;-73
2022/01/04 16:50:15;;;;;;;37.17;35.03;;;;;;;5.29;100.00;100456.75;1994458;71;32892;-70
2022/01/04 16:56:00;;;;;;;38.03;35.83;;;;;;;5.27;100.00;100463.59;2018288;71;32804;-73
2022/01/04 17:01:46;;;;;;;37.97;35.97;;;;;;;5.23;100.00;100472.92;1998268;71;32820;-73
2022/01/04 17:07:33;;;;;;;36.40;34.40;;;;;;;5.18;100.00;100479.74;1991316;71;33249;-73
2022/01/04 17:19:19;;;;;;;43.37;40.67;;;;;;;4.86;100.00;100487.09;2016587;71;32878;-78
2022/01/04 17:25:08;;;;;;;47.30;44.40;;;;;;;4.89;100.00;100497.03;1991548;71;33236;-71
2022/01/04 17:30:53;;;;;;;43.27;40.50;;;;;;;4.96;100.00;100500.98;2014972;71;32839;-72
2022/01/04 17:36:38;;;;;;;50.53;46.70;;;;;;;4.90;100.00;100503.38;2003807;71;32902;-70
2022/01/04 17:42:23;;;;;;;50.97;46.87;;;;;;;4.63;100.00;100521.17;2016538;71;32881;-72
2022/01/04 17:48:09;;;;;;;49.10;46.00;;;;;;;4.54;100.00;100520.78;2011009;71;33520;-72
2022/01/04 17:53:53;;;;;;;47.33;44.20;;;;;;;4.57;100.00;100521.67;2016425;71;32831;-76
2022/01/04 17:59:41;;;;;;;47.97;44.87;;;;;;;4.62;100.00;100524.20;2014842;71;32949;-72
2022/01/04 18:05:25;;;;;;;47.43;44.20;;;;;;;4.47;100.00;100534.42;1906825;70;100297;-77
2022/01/04 18:11:11;;;;;;;50.20;46.97;;;;;;;4.26;100.00;100550.33;2005902;71;32820;-78
2022/01/04 18:16:58;;;;;;;49.47;46.23;;;;;;;4.03;100.00;100553.53;1998921;71;32868;-81
2022/01/04 18:22:43;;;;;;;47.90;44.97;;;;;;;3.86;100.00;100561.47;2011409;71;33460;-75
2022/01/04 18:28:28;;;;;;;47.03;44.20;;;;;;;3.96;100.00;100578.98;2016788;71;32840;-78
2022/01/04 18:34:04;;;;;;;46.27;42.97;;;;;;;4.04;100.00;100590.09;2009887;71;31929;-81
2022/01/04 18:39:51;;;;;;;46.13;43.27;;;;;;;4.12;100.00;100593.80;2004491;71;32785;-80
2022/01/04 18:45:36;;;;;;;45.40;42.23;;;;;;;4.19;100.00;100605.49;2005834;71;32836;-79
2022/01/04 18:51:21;;;;;;;48.03;44.90;;;;;;;4.24;100.00;100610.20;2005834;71;33337;-74
2022/01/04 18:57:07;;;;;;;44.13;41.30;;;;;;;4.14;100.00;100610.89;1995161;71;32844;-73
2022/01/04 19:02:51;;;;;;;47.53;44.33;;;;;;;3.86;100.00;100620.00;2015163;71;32888;-76
2022/01/04 19:08:36;;;;;;;47.37;44.37;;;;;;;3.96;100.00;100622.95;1991350;71;32791;-74
2022/01/04 19:14:20;;;;;;;45.77;42.43;;;;;;;4.09;100.00;100640.50;2016551;71;32913;-76
2022/01/04 19:20:09;;;;;;;51.37;47.67;;;;;;;4.18;100.00;100654.67;2011636;71;32795;-78
2022/01/04 19:25:58;;;;;;;44.43;41.27;;;;;;;4.10;100.00;100655.08;1988266;71;32839;-74
2022/01/04 19:31:41;;;;;;;45.07;41.47;;;;;;;4.17;100.00;100659.86;2015145;71;33351;-77
2022/01/04 19:37:25;;;;;;;44.83;41.63;;;;;;;4.18;100.00;100682.70;1997010;70;32890;-74
2022/01/04 19:43:11;;;;;;;45.93;42.50;;;;;;;4.20;100.00;100689.59;2014984;71;33490;-76
2022/01/04 19:48:57;;;;;;;47.10;43.97;;;;;;;4.05;100.00;100686.05;2009529;71;33348;-71
2022/01/04 19:54:43;;;;;;;45.40;42.17;;;;;;;4.15;100.00;100685.38;2011800;71;33227;-70
2022/01/04 20:00:27;;;;;;;42.33;39.37;;;;;;;4.00;100.00;100691.44;2005580;71;32967;-74
2022/01/04 20:06:14;;;;;;;44.40;41.30;;;;;;;4.14;100.00;100694.73;2004098;71;32903;-74
2022/01/04 20:11:59;;;;;;;43.10;39.70;;;;;;;4.12;100.00;100691.37;2004077;71;32920;-72
2022/01/04 20:17:47;;;;;;;44.07;40.53;;;;;;;4.04;100.00;100702.23;2003992;71;32855;-76
2022/01/04 20:23:31;;;;;;;42.47;39.67;;;;;;;4.16;100.00;100703.55;2010166;71;32961;-78
2022/01/04 20:29:18;;;;;;;42.23;39.20;;;;;;;4.19;100.00;100711.32;2007690;71;32994;-73
2022/01/04 20:35:02;;;;;;;41.30;38.80;;;;;;;4.21;100.00;100709.68;1998934;71;32802;-75
2022/01/04 20:40:47;;;;;;;42.33;39.53;;;;;;;4.24;100.00;100713.30;2003559;71;32909;-79
2022/01/04 20:46:31;;;;;;;40.90;38.20;;;;;;;4.26;100.00;100727.65;1995366;71;32787;-71
2022/01/04 20:52:16;;;;;;;42.20;39.30;;;;;;;4.14;100.00;100729.09;2000251;71;32991;-70
2022/01/04 20:58:00;;;;;;;43.93;40.90;;;;;;;4.10;100.00;100724.63;2005657;71;32939;-72
2022/01/04 21:03:44;;;;;;;44.90;41.97;;;;;;;4.10;100.00;100721.87;2005716;71;32888;-74
2022/01/04 21:09:33;;;;;;;46.53;43.63;;;;;;;4.12;100.00;100740.31;1995259;70;32928;-83
2022/01/04 21:15:19;;;;;;;46.80;44.17;;;;;;;4.03;100.00;100730.79;2014650;70;32834;-71
2022/01/04 21:21:05;;;;;;;46.37;43.40;;;;;;;3.98;100.00;100736.75;1995455;71;32774;-71
2022/01/04 21:26:49;;;;;;;48.10;45.00;;;;;;;4.03;100.00;100750.03;2002603;71;32776;-76
2022/01/04 21:32:34;;;;;;;45.10;41.83;;;;;;;3.97;100.00;100741.41;1991898;71;33346;-73
2022/01/04 21:38:19;;;;;;;45.53;42.13;;;;;;;3.98;100.00;100758.73;2004368;71;32759;-76
2022/01/04 21:44:03;;;;;;;44.47;41.57;;;;;;;3.82;100.00;100767.72;2018610;71;32925;-77
2022/01/04 21:49:47;;;;;;;47.33;44.23;;;;;;;3.87;100.00;100773.33;2000455;71;32891;-81
2022/01/04 21:55:32;;;;;;;47.00;43.63;;;;;;;3.79;100.00;100762.72;2009950;71;32888;-75
2022/01/04 22:01:19;;;;;;;44.40;41.47;;;;;;;3.77;100.00;100764.86;2015050;71;32854;-70
2022/01/04 22:07:03;;;;;;;44.60;42.00;;;;;;;3.80;100.00;100780.34;2009503;71;32932;-76
2022/01/04 22:12:49;;;;;;;45.03;42.30;;;;;;;3.81;100.00;100786.11;2003851;71;32866;-77
2022/01/04 22:18:34;;;;;;;43.50;40.90;;;;;;;3.91;100.00;100794.58;2016444;71;32944;-73
2022/01/04 22:24:18;;;;;;;41.77;39.10;;;;;;;3.86;100.00;100791.72;2012941;71;33344;-74
2022/01/04 22:30:03;;;;;;;43.80;41.10;;;;;;;3.87;100.00;100795.30;2007542;71;33361;-74
2022/01/04 22:35:49;;;;;;;42.00;39.63;;;;;;;3.92;100.00;100801.75;2007548;71;32959;-75
2022/01/04 22:41:33;;;;;;;43.37;40.63;;;;;;;4.01;100.00;100810.45;2006201;71;32790;-74
2022/01/04 22:47:21;;;;;;;44.30;41.77;;;;;;;3.83;100.00;100815.56;1997167;71;32885;-75
2022/01/04 22:53:07;;;;;;;45.43;42.73;;;;;;;3.70;100.00;100816.36;2005873;70;32938;-76
2022/01/04 22:58:51;;;;;;;43.70;41.00;;;;;;;3.73;100.00;100815.86;1999925;71;32932;-74
2022/01/04 23:04:35;;;;;;;41.80;39.27;;;;;;;3.90;100.00;100818.16;2011171;71;33359;-75
2022/01/04 23:10:21;;;;;;;40.20;37.80;;;;;;;3.90;100.00;100833.27;2015025;71;33331;-75
2022/01/04 23:16:08;;;;;;;42.43;39.50;;;;;;;3.92;100.00;100836.09;2015103;71;32978;-81
2022/01/04 23:21:54;;;;;;;44.50;41.60;;;;;;;3.86;100.00;100835.67;2018470;71;32839;-75
2022/01/04 23:27:38;;;;;;;43.53;41.03;;;;;;;3.80;100.00;100830.33;1971005;72;32928;-75
2022/01/04 23:33:27;;;;;;;43.17;40.40;;;;;;;3.70;100.00;100828.72;1994304;71;32951;-79
2022/01/04 23:39:11;;;;;;;44.37;41.73;;;;;;;3.75;100.00;100821.97;2014829;71;32872;-77
2022/01/04 23:44:55;;;;;;;42.23;39.80;;;;;;;3.68;100.00;100827.04;2009207;71;32927;-76
2022/01/04 23:50:39;;;;;;;42.57;40.20;;;;;;;3.70;100.00;100821.31;2011303;71;33399;-74
2022/01/04 23:56:24;;;;;;;41.17;38.70;;;;;;;3.70;100.00;100830.93;1995175;71;32831;-75
